createdAt,value
2023-03-29T00:15:25.000Z,8.90
2023-03-29T00:25:25.000Z,8.80
2023-03-29T00:35:26.000Z,8.50
2023-03-29T00:45:27.000Z,7.50
2023-03-29T00:55:27.000Z,9.70
2023-03-29T01:05:28.000Z,7.80
2023-03-29T01:15:29.000Z,8.40
2023-03-29T01:25:29.000Z,7.40
2023-03-29T01:45:30.000Z,7.00
2023-03-29T01:55:31.000Z,7.10
2023-03-29T02:05:32.000Z,6.60
2023-03-29T02:15:32.000Z,7.10
2023-03-29T02:25:33.000Z,7.30
2023-03-29T02:35:33.000Z,6.20
2023-03-29T02:45:34.000Z,6.60
2023-03-29T02:55:34.000Z,6.70
2023-03-29T03:15:36.000Z,5.70
2023-03-29T03:25:36.000Z,6.70
2023-03-29T03:35:37.000Z,6.50
2023-03-29T03:45:37.000Z,6.70
2023-03-29T03:55:38.000Z,6.30
2023-03-29T04:05:38.000Z,5.30
2023-03-29T04:15:39.000Z,7.10
2023-03-29T04:25:39.000Z,6.00
2023-03-29T04:45:40.000Z,6.20
2023-03-29T04:55:41.000Z,6.40
2023-03-29T05:05:41.000Z,6.40
2023-03-29T05:15:42.000Z,7.10
2023-03-29T05:25:42.000Z,6.30
2023-03-29T05:35:42.000Z,8.50
2023-03-29T05:45:43.000Z,7.50
2023-03-29T05:55:43.000Z,7.50
2023-03-29T06:15:44.000Z,7.20
2023-03-29T06:25:44.000Z,9.20
2023-03-29T06:35:45.000Z,9.60
2023-03-29T06:45:45.000Z,9.60
2023-03-29T06:55:46.000Z,9.80
2023-03-29T07:05:46.000Z,10.70
2023-03-29T07:15:46.000Z,12.90
2023-03-29T07:25:47.000Z,13.50
2023-03-29T07:45:47.000Z,13.40
2023-03-29T07:55:47.000Z,12.20
2023-03-29T08:05:48.000Z,12.40
2023-03-29T08:15:48.000Z,11.30
2023-03-29T08:25:48.000Z,13.30
2023-03-29T08:35:48.000Z,12.00
2023-03-29T08:45:49.000Z,12.80
2023-03-29T08:55:49.000Z,11.80
2023-03-29T09:15:49.000Z,12.40
2023-03-29T09:25:49.000Z,12.30
2023-03-29T09:35:49.000Z,11.80
2023-03-29T09:45:49.000Z,11.30
2023-03-29T09:55:49.000Z,11.10
2023-03-29T10:05:49.000Z,10.70
2023-03-29T10:15:49.000Z,10.90
2023-03-29T10:25:49.000Z,9.10
2023-03-29T10:45:50.000Z,9.60
2023-03-29T10:55:50.000Z,8.70
2023-03-29T11:05:49.000Z,10.00
2023-03-29T11:15:49.000Z,9.70
2023-03-29T11:25:49.000Z,8.50
2023-03-29T11:35:49.000Z,8.90
2023-03-29T11:45:49.000Z,8.20
2023-03-29T11:55:49.000Z,9.80
2023-03-29T12:15:49.000Z,7.20
2023-03-29T12:25:48.000Z,8.10
2023-03-29T12:35:48.000Z,7.20
2023-03-29T12:45:48.000Z,8.30
2023-03-29T12:55:48.000Z,7.10
2023-03-29T13:05:47.000Z,8.20
2023-03-29T13:15:47.000Z,6.40
2023-03-29T13:25:47.000Z,6.70
2023-03-29T13:45:46.000Z,6.00
2023-03-29T13:55:45.000Z,6.10
2023-03-29T14:05:45.000Z,6.20
2023-03-29T14:15:45.000Z,7.00
2023-03-29T14:25:44.000Z,6.80
2023-03-29T14:35:44.000Z,6.50
2023-03-29T14:45:44.000Z,6.30
2023-03-29T14:55:43.000Z,6.60
2023-03-29T15:15:42.000Z,5.60
2023-03-29T15:25:42.000Z,6.20
2023-03-29T15:35:42.000Z,5.40
2023-03-29T15:45:41.000Z,5.40
2023-03-29T15:55:41.000Z,6.70
2023-03-29T16:05:40.000Z,5.90
2023-03-29T16:15:40.000Z,6.70
2023-03-29T16:25:40.000Z,7.40
2023-03-29T16:45:39.000Z,8.60
2023-03-29T16:55:39.000Z,6.40
2023-03-29T17:05:39.000Z,7.90
2023-03-29T17:15:38.000Z,12.90
2023-03-29T17:25:38.000Z,10.10
2023-03-29T17:35:38.000Z,11.50
2023-03-29T17:45:38.000Z,10.90
2023-03-29T17:55:37.000Z,11.40
2023-03-29T18:15:37.000Z,12.20
2023-03-29T18:25:37.000Z,10.00
2023-03-29T18:35:37.000Z,19.40
2023-03-29T18:45:37.000Z,13.10
2023-03-29T18:55:36.000Z,7.90
2023-03-29T19:05:36.000Z,6.80
2023-03-29T19:15:36.000Z,12.30
2023-03-29T19:25:36.000Z,7.70
2023-03-29T20:05:52.000Z,10.90
2023-03-29T20:05:52.000Z,9.90
2023-03-29T20:15:52.000Z,7.80
2023-03-29T20:25:51.000Z,9.10
2023-03-29T20:35:51.000Z,8.40
2023-03-29T20:45:51.000Z,9.00
2023-03-29T20:55:50.000Z,8.30
2023-03-29T21:05:50.000Z,8.20
2023-03-29T21:15:49.000Z,7.90
2023-03-29T21:35:48.000Z,7.80
2023-03-29T21:45:48.000Z,7.50
2023-03-29T21:55:48.000Z,8.60
2023-03-29T22:05:47.000Z,8.20
2023-03-29T22:15:47.000Z,8.50
2023-03-29T22:25:47.000Z,8.90
2023-03-29T22:35:46.000Z,9.00
2023-03-29T22:45:46.000Z,7.60
2023-03-29T23:05:45.000Z,7.90
2023-03-29T23:15:44.000Z,9.40
2023-03-29T23:25:44.000Z,8.20
2023-03-29T23:35:43.000Z,8.30
2023-03-29T23:45:43.000Z,9.70
2023-03-29T23:55:42.000Z,8.30
